sensor_id;sensor_type;location;lat;lon;timestamp;pressure;altitude;pressure_sealevel;temperature;humidity
72721;BME280;60835;50.974;10.322;2023-03-31T00:00:16;97192.34;;;10.65;100.00
72721;BME280;60835;50.974;10.322;2023-03-31T00:02:42;97198.16;;;10.75;100.00
72721;BME280;60835;50.974;10.322;2023-03-31T00:05:09;97208.84;;;10.82;100.00
72721;BME280;60835;50.974;10.322;2023-03-31T00:07:35;97216.44;;;10.70;100.00
72721;BME280;60835;50.974;10.322;2023-03-31T00:10:04;97217.59;;;10.82;100.00
72721;BME280;60835;50.974;10.322;2023-03-31T00:12:43;97224.53;;;10.83;100.00
72721;BME280;60835;50.974;10.322;2023-03-31T00:15:10;97218.59;;;10.81;100.00
72721;BME280;60835;50.974;10.322;2023-03-31T00:17:36;97225.09;;;10.79;100.00
72721;BME280;60835;50.974;10.322;2023-03-31T00:20:03;97224.88;;;10.80;100.00
72721;BME280;60835;50.974;10.322;2023-03-31T00:22:30;97220.63;;;10.79;100.00
72721;BME280;60835;50.974;10.322;2023-03-31T00:24:57;97246.59;;;10.90;100.00
72721;BME280;60835;50.974;10.322;2023-03-31T00:27:27;97250.97;;;10.98;100.00
72721;BME280;60835;50.974;10.322;2023-03-31T00:29:53;97256.41;;;11.11;100.00
72721;BME280;60835;50.974;10.322;2023-03-31T00:32:20;97256.31;;;11.05;100.00
72721;BME280;60835;50.974;10.322;2023-03-31T00:34:46;97254.34;;;11.07;100.00
72721;BME280;60835;50.974;10.322;2023-03-31T00:37:12;97240.44;;;11.05;100.00
72721;BME280;60835;50.974;10.322;2023-03-31T00:39:42;97242.84;;;10.99;100.00
72721;BME280;60835;50.974;10.322;2023-03-31T00:42:10;97246.31;;;11.00;100.00
72721;BME280;60835;50.974;10.322;2023-03-31T00:47:41;97258.34;;;11.02;100.00
72721;BME280;60835;50.974;10.322;2023-03-31T00:50:21;97208.13;;;10.88;100.00
72721;BME280;60835;50.974;10.322;2023-03-31T00:52:56;97224.06;;;10.94;100.00
72721;BME280;60835;50.974;10.322;2023-03-31T00:55:43;97222.22;;;10.95;100.00
72721;BME280;60835;50.974;10.322;2023-03-31T00:58:11;97217.56;;;10.97;100.00
72721;BME280;60835;50.974;10.322;2023-03-31T01:00:46;97205.63;;;10.86;100.00
72721;BME280;60835;50.974;10.322;2023-03-31T01:03:14;97217.56;;;10.97;100.00
72721;BME280;60835;50.974;10.322;2023-03-31T01:05:57;97214.56;;;11.00;100.00
72721;BME280;60835;50.974;10.322;2023-03-31T01:08:26;97202.16;;;10.86;100.00
72721;BME280;60835;50.974;10.322;2023-03-31T01:11:02;97175.38;;;10.74;100.00
72721;BME280;60835;50.974;10.322;2023-03-31T01:13:29;97198.72;;;10.85;100.00
72721;BME280;60835;50.974;10.322;2023-03-31T01:16:00;97184.00;;;10.83;100.00
72721;BME280;60835;50.974;10.322;2023-03-31T01:18:29;97181.81;;;10.86;100.00
72721;BME280;60835;50.974;10.322;2023-03-31T01:21:14;97172.47;;;10.69;100.00
72721;BME280;60835;50.974;10.322;2023-03-31T01:30:08;97167.78;;;10.86;100.00
72721;BME280;60835;50.974;10.322;2023-03-31T01:33:40;97167.97;;;10.84;100.00
72721;BME280;60835;50.974;10.322;2023-03-31T01:41:39;97131.41;;;10.73;100.00
72721;BME280;60835;50.974;10.322;2023-03-31T01:44:31;97143.16;;;10.85;100.00
72721;BME280;60835;50.974;10.322;2023-03-31T01:47:14;97152.03;;;10.99;100.00
72721;BME280;60835;50.974;10.322;2023-03-31T01:52:52;97139.63;;;10.99;100.00
72721;BME280;60835;50.974;10.322;2023-03-31T01:55:36;97126.41;;;10.99;100.00
72721;BME280;60835;50.974;10.322;2023-03-31T02:00:48;97114.56;;;10.95;100.00
72721;BME280;60835;50.974;10.322;2023-03-31T02:03:28;97122.75;;;11.00;100.00
72721;BME280;60835;50.974;10.322;2023-03-31T02:05:58;97117.22;;;10.95;100.00
72721;BME280;60835;50.974;10.322;2023-03-31T02:08:35;97100.69;;;10.93;100.00
72721;BME280;60835;50.974;10.322;2023-03-31T02:11:03;97109.28;;;10.95;100.00
72721;BME280;60835;50.974;10.322;2023-03-31T02:13:31;97088.94;;;10.96;100.00
72721;BME280;60835;50.974;10.322;2023-03-31T02:16:12;97115.81;;;10.99;100.00
72721;BME280;60835;50.974;10.322;2023-03-31T02:18:42;97096.66;;;10.97;100.00
72721;BME280;60835;50.974;10.322;2023-03-31T02:21:11;97111.72;;;10.97;100.00
72721;BME280;60835;50.974;10.322;2023-03-31T02:23:40;97065.91;;;10.75;100.00
72721;BME280;60835;50.974;10.322;2023-03-31T02:26:14;97107.25;;;10.97;100.00
72721;BME280;60835;50.974;10.322;2023-03-31T02:28:41;97083.06;;;11.00;100.00
72721;BME280;60835;50.974;10.322;2023-03-31T02:31:48;97080.41;;;11.00;100.00
72721;BME280;60835;50.974;10.322;2023-03-31T02:34:17;97070.59;;;10.94;100.00
72721;BME280;60835;50.974;10.322;2023-03-31T02:36:45;97045.31;;;10.92;100.00
72721;BME280;60835;50.974;10.322;2023-03-31T02:39:15;97006.59;;;10.84;100.00
72721;BME280;60835;50.974;10.322;2023-03-31T02:41:43;97000.94;;;10.87;100.00
72721;BME280;60835;50.974;10.322;2023-03-31T02:44:10;96974.41;;;10.81;100.00
72721;BME280;60835;50.974;10.322;2023-03-31T02:46:38;96951.94;;;10.70;100.00
72721;BME280;60835;50.974;10.322;2023-03-31T02:49:08;96926.09;;;10.72;100.00
72721;BME280;60835;50.974;10.322;2023-03-31T02:51:58;96875.13;;;10.57;100.00
72721;BME280;60835;50.974;10.322;2023-03-31T03:00:22;96723.91;;;10.34;100.00
72721;BME280;60835;50.974;10.322;2023-03-31T03:03:03;96701.06;;;10.26;100.00
72721;BME280;60835;50.974;10.322;2023-03-31T03:05:41;96666.50;;;10.21;100.00
72721;BME280;60835;50.974;10.322;2023-03-31T03:11:18;96555.81;;;10.12;100.00
72721;BME280;60835;50.974;10.322;2023-03-31T03:13:55;96525.94;;;10.11;100.00
72721;BME280;60835;50.974;10.322;2023-03-31T03:16:29;96485.31;;;10.06;100.00
72721;BME280;60835;50.974;10.322;2023-03-31T03:19:01;96438.16;;;10.03;100.00
72721;BME280;60835;50.974;10.322;2023-03-31T03:21:28;96410.53;;;10.05;100.00
72721;BME280;60835;50.974;10.322;2023-03-31T03:23:55;96376.16;;;9.99;100.00
72721;BME280;60835;50.974;10.322;2023-03-31T03:26:23;96354.84;;;10.00;100.00
72721;BME280;60835;50.974;10.322;2023-03-31T03:28:51;96317.44;;;9.97;100.00
72721;BME280;60835;50.974;10.322;2023-03-31T03:31:18;96301.00;;;9.95;100.00
72721;BME280;60835;50.974;10.322;2023-03-31T03:33:49;96277.81;;;9.97;100.00
72721;BME280;60835;50.974;10.322;2023-03-31T03:36:16;96254.84;;;9.91;100.00
72721;BME280;60835;50.974;10.322;2023-03-31T03:38:43;96258.72;;;9.95;100.00
72721;BME280;60835;50.974;10.322;2023-03-31T03:41:10;96255.88;;;9.96;100.00
72721;BME280;60835;50.974;10.322;2023-03-31T03:43:36;96250.22;;;9.93;100.00
72721;BME280;60835;50.974;10.322;2023-03-31T03:46:03;96233.53;;;9.86;100.00
72721;BME280;60835;50.974;10.322;2023-03-31T03:48:30;96202.44;;;9.74;100.00
72721;BME280;60835;50.974;10.322;2023-03-31T03:50:59;96177.28;;;9.78;100.00
72721;BME280;60835;50.974;10.322;2023-03-31T03:53:25;96167.31;;;9.80;100.00
72721;BME280;60835;50.974;10.322;2023-03-31T03:55:53;96147.81;;;9.82;100.00
72721;BME280;60835;50.974;10.322;2023-03-31T03:58:21;96107.19;;;9.69;100.00
72721;BME280;60835;50.974;10.322;2023-03-31T04:00:47;96132.59;;;9.84;100.00
72721;BME280;60835;50.974;10.322;2023-03-31T04:03:14;96135.41;;;9.89;100.00
72721;BME280;60835;50.974;10.322;2023-03-31T04:05:41;96121.19;;;9.83;100.00
72721;BME280;60835;50.974;10.322;2023-03-31T04:08:08;96118.38;;;9.85;100.00
72721;BME280;60835;50.974;10.322;2023-03-31T04:10:43;96143.13;;;9.97;100.00
72721;BME280;60835;50.974;10.322;2023-03-31T04:13:09;96155.53;;;9.90;100.00
72721;BME280;60835;50.974;10.322;2023-03-31T04:15:36;96145.59;;;9.78;100.00
72721;BME280;60835;50.974;10.322;2023-03-31T04:18:03;96123.88;;;9.76;100.00
72721;BME280;60835;50.974;10.322;2023-03-31T04:20:30;96100.50;;;9.73;100.00
72721;BME280;60835;50.974;10.322;2023-03-31T04:22:59;96079.19;;;9.75;100.00
72721;BME280;60835;50.974;10.322;2023-03-31T04:25:27;96051.16;;;9.67;100.00
72721;BME280;60835;50.974;10.322;2023-03-31T04:28:03;96031.66;;;9.75;100.00
72721;BME280;60835;50.974;10.322;2023-03-31T04:30:32;96024.31;;;9.77;100.00
72721;BME280;60835;50.974;10.322;2023-03-31T04:33:00;96014.59;;;9.77;100.00
72721;BME280;60835;50.974;10.322;2023-03-31T04:35:29;95995.09;;;9.78;100.00
72721;BME280;60835;50.974;10.322;2023-03-31T04:38:16;95987.41;;;9.70;100.00
72721;BME280;60835;50.974;10.322;2023-03-31T04:40:47;95995.28;;;9.84;100.00
72721;BME280;60835;50.974;10.322;2023-03-31T04:43:15;95989.94;;;9.90;100.00
72721;BME280;60835;50.974;10.322;2023-03-31T04:45:42;95993.81;;;9.88;100.00
72721;BME280;60835;50.974;10.322;2023-03-31T04:48:09;95998.75;;;9.77;100.00
72721;BME280;60835;50.974;10.322;2023-03-31T04:50:37;95995.91;;;9.79;100.00
72721;BME280;60835;50.974;10.322;2023-03-31T04:53:05;95993.88;;;9.81;100.00
72721;BME280;60835;50.974;10.322;2023-03-31T04:55:32;96005.25;;;9.82;100.00
72721;BME280;60835;50.974;10.322;2023-03-31T04:57:59;95998.34;;;9.80;100.00
72721;BME280;60835;50.974;10.322;2023-03-31T05:00:26;95988.59;;;9.81;100.00
72721;BME280;60835;50.974;10.322;2023-03-31T05:02:54;95985.75;;;9.76;100.00
72721;BME280;60835;50.974;10.322;2023-03-31T05:05:21;95979.91;;;9.67;100.00
72721;BME280;60835;50.974;10.322;2023-03-31T05:07:48;95985.78;;;9.69;100.00
72721;BME280;60835;50.974;10.322;2023-03-31T05:10:15;95981.91;;;9.72;100.00
72721;BME280;60835;50.974;10.322;2023-03-31T05:12:48;95986.78;;;9.75;100.00
72721;BME280;60835;50.974;10.322;2023-03-31T05:15:15;95981.53;;;9.68;100.00
72721;BME280;60835;50.974;10.322;2023-03-31T05:17:42;95972.75;;;9.74;100.00
72721;BME280;60835;50.974;10.322;2023-03-31T05:20:09;95979.84;;;9.80;100.00
72721;BME280;60835;50.974;10.322;2023-03-31T05:22:38;95981.31;;;9.76;100.00
72721;BME280;60835;50.974;10.322;2023-03-31T05:25:08;95966.81;;;9.86;100.00
72721;BME280;60835;50.974;10.322;2023-03-31T05:27:35;95958.97;;;9.72;100.00
72721;BME280;60835;50.974;10.322;2023-03-31T05:30:03;95973.16;;;9.85;100.00
72721;BME280;60835;50.974;10.322;2023-03-31T05:32:29;95964.78;;;9.88;100.00
72721;BME280;60835;50.974;10.322;2023-03-31T05:34:56;95955.25;;;9.87;100.00
72721;BME280;60835;50.974;10.322;2023-03-31T05:37:23;95927.56;;;9.96;100.00
72721;BME280;60835;50.974;10.322;2023-03-31T05:39:50;95933.72;;;9.90;100.00
72721;BME280;60835;50.974;10.322;2023-03-31T05:42:18;95956.81;;;10.01;100.00
72721;BME280;60835;50.974;10.322;2023-03-31T05:44:45;95972.28;;;9.91;100.00
72721;BME280;60835;50.974;10.322;2023-03-31T05:47:15;95989.94;;;9.97;100.00
72721;BME280;60835;50.974;10.322;2023-03-31T05:49:42;95988.06;;;10.04;100.00
72721;BME280;60835;50.974;10.322;2023-03-31T05:52:09;95972.66;;;10.14;100.00
72721;BME280;60835;50.974;10.322;2023-03-31T05:54:36;95988.28;;;10.15;100.00
72721;BME280;60835;50.974;10.322;2023-03-31T05:57:03;95981.56;;;10.13;100.00
72721;BME280;60835;50.974;10.322;2023-03-31T05:59:30;95982.50;;;10.25;100.00
72721;BME280;60835;50.974;10.322;2023-03-31T06:02:01;95843.78;;;9.40;100.00
72721;BME280;60835;50.974;10.322;2023-03-31T06:04:28;95976.25;;;10.19;100.00
72721;BME280;60835;50.974;10.322;2023-03-31T06:06:56;95992.91;;;10.20;100.00
72721;BME280;60835;50.974;10.322;2023-03-31T06:09:24;96028.41;;;10.37;100.00
72721;BME280;60835;50.974;10.322;2023-03-31T06:11:51;96033.53;;;10.32;100.00
72721;BME280;60835;50.974;10.322;2023-03-31T06:14:20;96024.63;;;10.20;100.00
72721;BME280;60835;50.974;10.322;2023-03-31T06:16:47;96046.09;;;10.30;100.00
72721;BME280;60835;50.974;10.322;2023-03-31T06:19:14;96068.47;;;10.34;100.00
72721;BME280;60835;50.974;10.322;2023-03-31T06:21:41;96054.84;;;10.30;100.00
72721;BME280;60835;50.974;10.322;2023-03-31T06:24:08;96044.50;;;10.29;100.00
72721;BME280;60835;50.974;10.322;2023-03-31T06:26:37;96062.41;;;10.27;100.00
72721;BME280;60835;50.974;10.322;2023-03-31T06:29:03;96028.13;;;10.14;100.00
72721;BME280;60835;50.974;10.322;2023-03-31T06:31:30;96053.50;;;10.15;100.00
72721;BME280;60835;50.974;10.322;2023-03-31T06:33:57;96085.19;;;10.15;100.00
72721;BME280;60835;50.974;10.322;2023-03-31T06:36:24;96116.44;;;10.31;100.00
72721;BME280;60835;50.974;10.322;2023-03-31T06:38:50;96107.75;;;10.11;100.00
72721;BME280;60835;50.974;10.322;2023-03-31T06:41:17;96139.22;;;10.25;100.00
72721;BME280;60835;50.974;10.322;2023-03-31T06:43:46;96160.97;;;10.27;100.00
72721;BME280;60835;50.974;10.322;2023-03-31T06:46:13;96160.81;;;10.16;100.00
72721;BME280;60835;50.974;10.322;2023-03-31T06:48:40;96203.88;;;10.29;100.00
72721;BME280;60835;50.974;10.322;2023-03-31T06:51:07;96205.88;;;10.27;100.00
72721;BME280;60835;50.974;10.322;2023-03-31T06:53:34;96251.41;;;10.43;100.00
72721;BME280;60835;50.974;10.322;2023-03-31T06:56:03;96281.06;;;10.64;100.00
72721;BME280;60835;50.974;10.322;2023-03-31T06:58:32;96312.38;;;10.61;100.00
72721;BME280;60835;50.974;10.322;2023-03-31T07:01:03;96304.28;;;10.43;100.00
72721;BME280;60835;50.974;10.322;2023-03-31T07:03:31;96331.09;;;10.59;100.00
72721;BME280;60835;50.974;10.322;2023-03-31T07:05:58;96364.03;;;10.57;100.00
72721;BME280;60835;50.974;10.322;2023-03-31T07:08:25;96361.59;;;10.55;100.00
72721;BME280;60835;50.974;10.322;2023-03-31T07:10:55;96355.91;;;10.52;100.00
72721;BME280;60835;50.974;10.322;2023-03-31T07:13:30;96344.31;;;10.33;100.00
72721;BME280;60835;50.974;10.322;2023-03-31T07:15:57;96349.81;;;10.31;100.00
72721;BME280;60835;50.974;10.322;2023-03-31T07:18:24;96291.84;;;10.30;100.00
72721;BME280;60835;50.974;10.322;2023-03-31T07:21:00;96275.38;;;10.41;100.00
72721;BME280;60835;50.974;10.322;2023-03-31T07:23:31;96245.53;;;10.21;100.00
72721;BME280;60835;50.974;10.322;2023-03-31T07:26:07;96257.72;;;10.22;100.00
72721;BME280;60835;50.974;10.322;2023-03-31T07:28:34;96230.69;;;10.26;100.00
72721;BME280;60835;50.974;10.322;2023-03-31T07:31:09;96212.38;;;10.25;100.00
72721;BME280;60835;50.974;10.322;2023-03-31T07:33:36;96185.16;;;10.31;100.00
72721;BME280;60835;50.974;10.322;2023-03-31T07:36:04;96162.81;;;10.27;100.00
72721;BME280;60835;50.974;10.322;2023-03-31T07:38:44;96124.63;;;10.16;100.00
72721;BME280;60835;50.974;10.322;2023-03-31T07:41:14;96075.47;;;10.02;100.00
72721;BME280;60835;50.974;10.322;2023-03-31T07:43:42;96056.94;;;10.09;100.00
72721;BME280;60835;50.974;10.322;2023-03-31T07:46:19;96021.00;;;10.08;100.00
72721;BME280;60835;50.974;10.322;2023-03-31T07:48:46;95975.09;;;10.02;100.00
72721;BME280;60835;50.974;10.322;2023-03-31T07:51:18;95947.81;;;10.15;100.00
72721;BME280;60835;50.974;10.322;2023-03-31T07:53:46;95931.44;;;10.00;100.00
72721;BME280;60835;50.974;10.322;2023-03-31T07:56:14;95863.50;;;9.82;100.00
72721;BME280;60835;50.974;10.322;2023-03-31T07:58:45;95871.31;;;9.95;100.00
72721;BME280;60835;50.974;10.322;2023-03-31T08:01:14;95842.88;;;9.97;100.00
72721;BME280;60835;50.974;10.322;2023-03-31T08:03:43;95803.97;;;10.11;100.00
72721;BME280;60835;50.974;10.322;2023-03-31T08:06:10;95786.50;;;10.10;100.00
72721;BME280;60835;50.974;10.322;2023-03-31T08:08:39;95753.38;;;10.14;100.00
72721;BME280;60835;50.974;10.322;2023-03-31T08:11:16;95723.81;;;9.99;100.00
72721;BME280;60835;50.974;10.322;2023-03-31T08:13:44;95719.72;;;10.03;100.00
72721;BME280;60835;50.974;10.322;2023-03-31T08:16:10;95698.69;;;10.14;100.00
72721;BME280;60835;50.974;10.322;2023-03-31T08:18:37;92884.13;;;9.86;100.00
72721;BME280;60835;50.974;10.322;2023-03-31T08:21:04;92834.88;;;10.00;100.00
72721;BME280;60835;50.974;10.322;2023-03-31T08:23:30;92781.78;;;10.01;100.00
72721;BME280;60835;50.974;10.322;2023-03-31T08:26:15;92721.09;;;10.01;100.00
72721;BME280;60835;50.974;10.322;2023-03-31T08:28:50;92695.59;;;9.97;100.00
72721;BME280;60835;50.974;10.322;2023-03-31T08:31:18;92622.09;;;9.90;100.00
72721;BME280;60835;50.974;10.322;2023-03-31T08:33:46;92607.34;;;9.89;100.00
72721;BME280;60835;50.974;10.322;2023-03-31T08:36:13;92540.59;;;9.89;100.00
72721;BME280;60835;50.974;10.322;2023-03-31T08:38:41;92540.31;;;9.90;100.00
72721;BME280;60835;50.974;10.322;2023-03-31T08:41:50;92484.25;;;9.85;100.00
72721;BME280;60835;50.974;10.322;2023-03-31T08:44:23;92424.75;;;9.78;100.00
72721;BME280;60835;50.974;10.322;2023-03-31T08:46:54;92350.44;;;9.76;100.00
72721;BME280;60835;50.974;10.322;2023-03-31T08:49:21;92312.41;;;9.77;100.00
72721;BME280;60835;50.974;10.322;2023-03-31T08:51:51;92203.63;;;9.94;100.00
72721;BME280;60835;50.974;10.322;2023-03-31T08:54:37;92110.97;;;9.96;100.00
72721;BME280;60835;50.974;10.322;2023-03-31T08:57:14;92035.31;;;10.05;100.00
72721;BME280;60835;50.974;10.322;2023-03-31T08:59:41;91999.28;;;10.09;100.00
72721;BME280;60835;50.974;10.322;2023-03-31T09:02:29;91933.56;;;10.21;100.00
72721;BME280;60835;50.974;10.322;2023-03-31T09:12:56;91896.44;;;10.26;100.00
72721;BME280;60835;50.974;10.322;2023-03-31T09:18:36;91886.34;;;10.28;100.00
72721;BME280;60835;50.974;10.322;2023-03-31T09:21:10;91818.50;;;10.37;100.00
72721;BME280;60835;50.974;10.322;2023-03-31T09:23:43;91806.56;;;9.97;100.00
72721;BME280;60835;50.974;10.322;2023-03-31T09:26:26;91815.88;;;9.94;100.00
72721;BME280;60835;50.974;10.322;2023-03-31T09:28:56;91783.28;;;9.99;100.00
72721;BME280;60835;50.974;10.322;2023-03-31T09:31:26;91793.69;;;9.87;100.00
72721;BME280;60835;50.974;10.322;2023-03-31T09:33:58;91741.56;;;9.92;100.00
72721;BME280;60835;50.974;10.322;2023-03-31T09:36:26;91736.91;;;9.63;100.00
72721;BME280;60835;50.974;10.322;2023-03-31T09:38:54;91731.16;;;9.61;100.00
72721;BME280;60835;50.974;10.322;2023-03-31T09:41:24;91640.91;;;9.64;100.00
72721;BME280;60835;50.974;10.322;2023-03-31T09:43:51;91595.97;;;9.52;100.00
72721;BME280;60835;50.974;10.322;2023-03-31T09:46:30;91542.75;;;9.59;100.00
72721;BME280;60835;50.974;10.322;2023-03-31T09:49:03;91484.00;;;9.58;100.00
72721;BME280;60835;50.974;10.322;2023-03-31T09:51:34;91450.03;;;9.65;100.00
72721;BME280;60835;50.974;10.322;2023-03-31T09:56:44;91369.88;;;9.87;100.00
72721;BME280;60835;50.974;10.322;2023-03-31T09:59:15;91339.38;;;9.98;100.00
72721;BME280;60835;50.974;10.322;2023-03-31T10:01:44;91373.53;;;9.74;100.00
72721;BME280;60835;50.974;10.322;2023-03-31T10:04:24;91503.13;;;9.85;100.00
72721;BME280;60835;50.974;10.322;2023-03-31T10:06:55;91556.78;;;9.89;100.00
72721;BME280;60835;50.974;10.322;2023-03-31T10:09:27;91643.47;;;9.99;100.00
72721;BME280;60835;50.974;10.322;2023-03-31T10:12:06;91640.84;;;9.99;100.00
72721;BME280;60835;50.974;10.322;2023-03-31T10:14:41;91686.44;;;10.08;100.00
72721;BME280;60835;50.974;10.322;2023-03-31T10:17:17;91714.41;;;9.92;100.00
72721;BME280;60835;50.974;10.322;2023-03-31T10:19:50;91856.81;;;9.92;100.00
72721;BME280;60835;50.974;10.322;2023-03-31T10:24:48;92017.69;;;10.14;100.00
72721;BME280;60835;50.974;10.322;2023-03-31T10:27:22;92143.47;;;10.05;100.00
72721;BME280;60835;50.974;10.322;2023-03-31T10:30:02;92305.19;;;10.19;100.00
72721;BME280;60835;50.974;10.322;2023-03-31T10:32:31;92457.47;;;11.82;100.00
72721;BME280;60835;50.974;10.322;2023-03-31T10:35:05;93029.84;;;12.64;100.00
72721;BME280;60835;50.974;10.322;2023-03-31T10:37:34;93573.06;;;13.63;100.00
72721;BME280;60835;50.974;10.322;2023-03-31T10:40:23;94196.09;;;14.06;100.00
72721;BME280;60835;50.974;10.322;2023-03-31T10:43:14;94606.28;;;14.40;100.00
72721;BME280;60835;50.974;10.322;2023-03-31T10:45:47;94984.50;;;15.38;100.00
72721;BME280;60835;50.974;10.322;2023-03-31T10:48:26;95172.63;;;15.95;100.00
72721;BME280;60835;50.974;10.322;2023-03-31T10:53:48;95621.00;;;17.68;100.00
72721;BME280;60835;50.974;10.322;2023-03-31T10:56:33;96031.72;;;17.47;100.00
72721;BME280;60835;50.974;10.322;2023-03-31T11:07:01;95839.41;;;15.33;100.00
72721;BME280;60835;50.974;10.322;2023-03-31T11:12:02;96022.41;;;15.16;100.00
72721;BME280;60835;50.974;10.322;2023-03-31T11:14:43;96001.09;;;16.26;100.00
72721;BME280;60835;50.974;10.322;2023-03-31T11:24:58;95661.84;;;14.90;100.00
72721;BME280;60835;50.974;10.322;2023-03-31T11:30:19;95857.09;;;16.31;100.00
72721;BME280;60835;50.974;10.322;2023-03-31T11:35:23;96016.19;;;15.60;100.00
72721;BME280;60835;50.974;10.322;2023-03-31T11:42:54;95782.13;;;15.31;100.00
72721;BME280;60835;50.974;10.322;2023-03-31T11:45:28;95783.50;;;15.11;100.00
72721;BME280;60835;50.974;10.322;2023-03-31T11:47:57;95784.63;;;15.59;100.00
72721;BME280;60835;50.974;10.322;2023-03-31T11:50:31;95747.78;;;14.91;100.00
72721;BME280;60835;50.974;10.322;2023-03-31T11:53:00;95653.81;;;14.30;100.00
72721;BME280;60835;50.974;10.322;2023-03-31T11:55:28;95576.44;;;14.10;100.00
72721;BME280;60835;50.974;10.322;2023-03-31T12:00:35;95514.47;;;13.50;100.00
72721;BME280;60835;50.974;10.322;2023-03-31T12:05:37;95256.03;;;13.97;100.00
72721;BME280;60835;50.974;10.322;2023-03-31T12:08:25;95303.94;;;12.94;100.00
72721;BME280;60835;50.974;10.322;2023-03-31T12:10:54;95313.19;;;13.73;100.00
72721;BME280;60835;50.974;10.322;2023-03-31T12:13:32;95534.91;;;13.49;100.00
72721;BME280;60835;50.974;10.322;2023-03-31T12:18:32;95677.75;;;13.64;100.00
72721;BME280;60835;50.974;10.322;2023-03-31T12:21:02;95704.78;;;13.04;100.00
72721;BME280;60835;50.974;10.322;2023-03-31T12:23:30;95666.72;;;13.10;100.00
72721;BME280;60835;50.974;10.322;2023-03-31T12:28:34;95627.66;;;12.82;100.00
72721;BME280;60835;50.974;10.322;2023-03-31T12:31:03;95450.97;;;12.37;100.00
72721;BME280;60835;50.974;10.322;2023-03-31T12:33:41;95306.72;;;12.16;100.00
72721;BME280;60835;50.974;10.322;2023-03-31T12:49:15;95428.13;;;10.52;100.00
72721;BME280;60835;50.974;10.322;2023-03-31T13:02:21;95512.06;;;10.56;100.00
72721;BME280;60835;50.974;10.322;2023-03-31T13:04:48;95426.09;;;10.65;100.00
72721;BME280;60835;50.974;10.322;2023-03-31T13:12:38;95087.66;;;10.88;100.00
72721;BME280;60835;50.974;10.322;2023-03-31T13:15:11;95088.03;;;10.52;100.00
72721;BME280;60835;50.974;10.322;2023-03-31T13:17:39;95020.19;;;10.69;100.00
72721;BME280;60835;50.974;10.322;2023-03-31T13:22:48;95017.25;;;10.54;100.00
72721;BME280;60835;50.974;10.322;2023-03-31T13:27:58;95047.75;;;10.45;100.00
72721;BME280;60835;50.974;10.322;2023-03-31T13:33:23;95060.47;;;10.48;100.00
72721;BME280;60835;50.974;10.322;2023-03-31T13:35:50;94931.94;;;10.42;100.00
72721;BME280;60835;50.974;10.322;2023-03-31T13:51:05;94399.78;;;10.65;100.00
72721;BME280;60835;50.974;10.322;2023-03-31T13:56:08;94462.31;;;10.54;100.00
72721;BME280;60835;50.974;10.322;2023-03-31T13:58:47;94481.41;;;10.56;100.00
72721;BME280;60835;50.974;10.322;2023-03-31T14:09:12;94657.97;;;11.66;100.00
72721;BME280;60835;50.974;10.322;2023-03-31T14:11:42;94697.38;;;11.36;100.00
72721;BME280;60835;50.974;10.322;2023-03-31T14:14:13;94681.66;;;11.73;100.00
72721;BME280;60835;50.974;10.322;2023-03-31T14:16:47;94749.03;;;11.65;100.00
72721;BME280;60835;50.974;10.322;2023-03-31T14:21:48;94842.50;;;12.14;100.00
72721;BME280;60835;50.974;10.322;2023-03-31T14:24:21;94937.72;;;11.99;100.00
72721;BME280;60835;50.974;10.322;2023-03-31T14:32:14;94969.25;;;12.00;100.00
72721;BME280;60835;50.974;10.322;2023-03-31T14:34:52;94940.69;;;11.81;100.00
72721;BME280;60835;50.974;10.322;2023-03-31T14:37:22;94815.22;;;11.87;100.00
72721;BME280;60835;50.974;10.322;2023-03-31T14:39:50;94726.56;;;11.94;100.00
72721;BME280;60835;50.974;10.322;2023-03-31T14:42:23;94739.31;;;11.71;100.00
72721;BME280;60835;50.974;10.322;2023-03-31T14:45:01;94665.25;;;11.49;100.00
72721;BME280;60835;50.974;10.322;2023-03-31T14:47:28;94588.28;;;11.87;100.00
72721;BME280;60835;50.974;10.322;2023-03-31T14:50:02;94434.13;;;11.70;100.00
72721;BME280;60835;50.974;10.322;2023-03-31T14:52:33;94321.66;;;11.26;100.00
72721;BME280;60835;50.974;10.322;2023-03-31T14:55:01;94184.69;;;11.33;100.00
72721;BME280;60835;50.974;10.322;2023-03-31T14:57:32;94112.19;;;11.34;100.00
72721;BME280;60835;50.974;10.322;2023-03-31T14:59:59;94089.69;;;11.36;100.00
72721;BME280;60835;50.974;10.322;2023-03-31T15:02:34;94063.50;;;11.40;100.00
72721;BME280;60835;50.974;10.322;2023-03-31T15:05:03;94080.44;;;11.44;100.00
72721;BME280;60835;50.974;10.322;2023-03-31T15:07:30;94177.00;;;11.41;100.00
72721;BME280;60835;50.974;10.322;2023-03-31T15:09:57;94227.13;;;11.83;100.00
72721;BME280;60835;50.974;10.322;2023-03-31T15:12:24;94374.75;;;11.66;100.00
72721;BME280;60835;50.974;10.322;2023-03-31T15:14:56;94447.94;;;11.82;100.00
72721;BME280;60835;50.974;10.322;2023-03-31T15:17:27;94482.50;;;12.17;100.00
72721;BME280;60835;50.974;10.322;2023-03-31T15:19:55;94606.78;;;11.82;100.00
72721;BME280;60835;50.974;10.322;2023-03-31T15:22:23;94685.50;;;11.92;100.00
72721;BME280;60835;50.974;10.322;2023-03-31T15:24:50;94729.16;;;11.89;100.00
72721;BME280;60835;50.974;10.322;2023-03-31T15:27:24;94823.25;;;11.70;100.00
72721;BME280;60835;50.974;10.322;2023-03-31T15:30:03;94800.16;;;11.92;100.00
72721;BME280;60835;50.974;10.322;2023-03-31T15:32:34;94841.31;;;11.78;100.00
72721;BME280;60835;50.974;10.322;2023-03-31T15:35:01;94843.00;;;11.84;100.00
72721;BME280;60835;50.974;10.322;2023-03-31T15:37:50;94861.78;;;11.83;100.00